Time;durP1;ratioP1;P1;durP2;ratioP2;P2;SDS_P1;SDS_P2;PMS_P1;PMS_P2;Temp;Humidity;BMP_temperature;BMP_pressure;BME280_temperature;BME280_humidity;BME280_pressure;Samples;Min_cycle;Max_cycle;Signal;HPM_P1;HPM_P2
2024/01/09 00:02:19;;;;;;;5.32;1.77;;;16.30;50.00;;;;;;6165502;23;20149;-80
2024/01/09 00:04:50;;;;;;;3.17;1.70;;;16.30;50.00;;;;;;6145690;23;20150;-80
2024/01/09 00:07:20;;;;;;;5.43;1.60;;;16.30;50.30;;;;;;6143529;23;20189;-80
2024/01/09 00:09:47;;;;;;;3.67;1.40;;;16.20;50.30;;;;;;6149380;23;20371;-79
2024/01/09 00:12:13;;;;;;;4.57;1.60;;;16.20;50.20;;;;;;6169739;23;20146;-79
2024/01/09 00:14:40;;;;;;;4.22;1.77;;;16.20;50.30;;;;;;6144378;23;20156;-80
2024/01/09 00:17:11;;;;;;;6.72;2.20;;;16.20;50.40;;;;;;6168365;23;20153;-81
2024/01/09 00:19:40;;;;;;;4.15;1.83;;;16.20;50.30;;;;;;6143689;23;20246;-80
2024/01/09 00:22:06;;;;;;;4.18;1.65;;;16.20;50.40;;;;;;6145251;23;20196;-80
2024/01/09 00:24:36;;;;;;;3.63;1.50;;;16.20;50.20;;;;;;6170550;23;20130;-81
2024/01/09 00:27:04;;;;;;;3.80;1.42;;;16.20;50.30;;;;;;6119765;23;20219;-80
2024/01/09 00:29:35;;;;;;;3.85;1.60;;;16.20;50.50;;;;;;6145702;23;20149;-79
2024/01/09 00:32:04;;;;;;;4.18;1.38;;;16.20;50.40;;;;;;6120996;23;20150;-80
2024/01/09 00:34:30;;;;;;;5.20;1.83;;;16.10;50.20;;;;;;6170138;23;20566;-80
2024/01/09 00:36:56;;;;;;;3.35;1.70;;;16.20;50.50;;;;;;6171233;23;20181;-80
2024/01/09 00:39:29;;;;;;;2.95;1.40;;;16.20;50.30;;;;;;6170291;23;20138;-80
2024/01/09 00:41:56;;;;;;;4.00;1.77;;;16.10;50.40;;;;;;6170511;23;20566;-80
2024/01/09 00:44:23;;;;;;;2.38;1.40;;;16.20;50.50;;;;;;6194930;23;20130;-80
2024/01/09 00:46:53;;;;;;;4.18;1.50;;;16.20;50.40;;;;;;6170856;23;20176;-80
2024/01/09 00:49:19;;;;;;;4.20;1.85;;;16.20;50.40;;;;;;6120298;23;20544;-80
2024/01/09 00:51:46;;;;;;;3.40;1.55;;;16.10;50.40;;;;;;6196294;23;20146;-80
2024/01/09 00:54:13;;;;;;;5.38;1.80;;;16.10;50.40;;;;;;6170304;23;20596;-80
2024/01/09 00:56:43;;;;;;;3.83;1.73;;;16.10;50.20;;;;;;6144611;23;20243;-79
2024/01/09 00:59:09;;;;;;;4.13;1.50;;;16.20;50.40;;;;;;6144657;23;20585;-79
2024/01/09 01:01:36;;;;;;;4.88;1.65;;;16.20;50.30;;;;;;6170867;23;20210;-80
2024/01/09 01:04:02;;;;;;;2.30;1.30;;;16.10;50.30;;;;;;6120736;23;20150;-80
2024/01/09 01:06:40;;;;;;;2.58;1.50;;;16.10;50.40;;;;;;6194711;23;20242;-79
2024/01/09 01:09:05;;;;;;;3.95;1.58;;;16.20;50.50;;;;;;6150002;23;20220;-79
2024/01/09 01:11:32;;;;;;;4.65;1.65;;;16.10;50.40;;;;;;6169597;23;20483;-79
2024/01/09 01:14:02;;;;;;;2.80;1.60;;;16.20;50.30;;;;;;6168827;23;20146;-78
2024/01/09 01:16:32;;;;;;;3.42;1.52;;;16.10;50.50;;;;;;6095486;23;20163;-79
2024/01/09 01:18:58;;;;;;;3.45;1.40;;;16.10;50.50;;;;;;6143935;23;20150;-79
2024/01/09 01:21:26;;;;;;;4.70;1.48;;;16.00;50.40;;;;;;6220766;23;20159;-78
2024/01/09 01:23:56;;;;;;;2.92;1.65;;;16.10;50.50;;;;;;6169008;23;20481;-79
2024/01/09 01:26:30;;;;;;;4.55;1.58;;;16.10;50.50;;;;;;6118221;23;20182;-79
2024/01/09 01:28:55;;;;;;;2.00;1.27;;;16.00;50.50;;;;;;6119005;23;20150;-79
2024/01/09 01:31:25;;;;;;;2.00;1.70;;;16.10;50.60;;;;;;6168269;23;20135;-80
2024/01/09 01:33:52;;;;;;;6.00;1.60;;;16.10;50.60;;;;;;6118128;23;20160;-79
2024/01/09 01:36:23;;;;;;;3.03;1.50;;;16.10;50.50;;;;;;6193624;23;20131;-80
2024/01/09 01:38:53;;;;;;;2.72;1.50;;;16.10;50.40;;;;;;6142646;23;20174;-80
2024/01/09 01:41:19;;;;;;;5.70;1.33;;;16.10;50.50;;;;;;6118566;23;20161;-80
2024/01/09 01:43:50;;;;;;;2.38;1.40;;;16.00;50.50;;;;;;6220401;23;20130;-80
2024/01/09 01:46:20;;;;;;;3.50;1.50;;;16.10;50.30;;;;;;6117859;23;20236;-80
2024/01/09 01:48:46;;;;;;;3.35;1.50;;;16.10;50.40;;;;;;6094641;23;20154;-79
2024/01/09 01:51:12;;;;;;;3.28;1.52;;;16.10;50.40;;;;;;6193164;23;20153;-80
2024/01/09 01:53:38;;;;;;;2.72;1.60;;;16.10;50.50;;;;;;6193109;23;20130;-79
2024/01/09 01:56:04;;;;;;;3.28;1.48;;;16.00;50.40;;;;;;6169823;23;20519;-79
2024/01/09 01:58:32;;;;;;;4.38;1.40;;;15.90;50.40;;;;;;6167627;23;20142;-79
2024/01/09 02:00:59;;;;;;;2.85;1.50;;;16.00;50.50;;;;;;6193304;23;20135;-79
2024/01/09 02:03:25;;;;;;;3.42;1.60;;;16.00;50.40;;;;;;6220003;23;20576;-79
2024/01/09 02:05:51;;;;;;;2.45;1.42;;;16.00;50.40;;;;;;6167809;23;20209;-80
2024/01/09 02:08:18;;;;;;;2.58;1.50;;;16.00;50.50;;;;;;6192674;23;20162;-79
2024/01/09 02:10:48;;;;;;;3.03;1.30;;;16.00;50.30;;;;;;6144313;23;20142;-80
2024/01/09 02:13:14;;;;;;;2.15;1.20;;;16.00;50.30;;;;;;6119687;23;20232;-80
2024/01/09 02:15:40;;;;;;;4.53;1.70;;;16.10;50.50;;;;;;6146012;23;20473;-80
2024/01/09 02:18:11;;;;;;;2.28;1.48;;;16.00;50.40;;;;;;6146847;23;20139;-79
2024/01/09 02:20:37;;;;;;;4.45;1.67;;;16.00;51.10;;;;;;6120700;23;20212;-80
2024/01/09 02:23:08;;;;;;;1.60;1.25;;;16.10;50.30;;;;;;6170706;23;20190;-80
2024/01/09 02:25:37;;;;;;;3.92;1.40;;;16.00;50.30;;;;;;6143756;23;20164;-80
2024/01/09 02:28:14;;;;;;;1.83;1.02;;;16.00;50.10;;;;;;6144204;23;20190;-79
2024/01/09 02:30:44;;;;;;;5.25;1.40;;;16.10;50.30;;;;;;6123056;23;20160;-80
2024/01/09 02:33:13;;;;;;;4.90;1.55;;;16.00;50.40;;;;;;6143154;23;20153;-80
2024/01/09 02:35:44;;;;;;;2.40;1.50;;;16.00;50.30;;;;;;6144525;23;20228;-80
2024/01/09 02:38:13;;;;;;;2.70;1.20;;;16.00;50.50;;;;;;6144126;23;20165;-80
2024/01/09 02:40:45;;;;;;;3.55;1.65;;;16.00;50.40;;;;;;6094473;23;20154;-80
2024/01/09 02:43:14;;;;;;;2.88;1.60;;;16.00;50.30;;;;;;6119599;23;20626;-80
2024/01/09 02:45:46;;;;;;;1.75;1.35;;;16.10;50.40;;;;;;6119776;23;20154;-80
2024/01/09 02:48:15;;;;;;;2.60;1.38;;;16.00;50.20;;;;;;6118583;23;20347;-80
2024/01/09 02:50:45;;;;;;;2.70;1.35;;;15.90;50.30;;;;;;6144465;23;20150;-80
2024/01/09 02:53:14;;;;;;;2.63;1.48;;;16.00;50.30;;;;;;6118858;23;20177;-81
2024/01/09 02:55:43;;;;;;;3.88;1.60;;;16.00;50.40;;;;;;6143513;23;20154;-80
2024/01/09 02:58:13;;;;;;;1.75;1.35;;;16.00;50.30;;;;;;6118624;23;20165;-80
2024/01/09 03:00:41;;;;;;;2.35;1.50;;;16.00;50.30;;;;;;6095549;23;20478;-80
2024/01/09 03:03:09;;;;;;;1.70;1.50;;;16.00;50.30;;;;;;6144153;23;20161;-80
2024/01/09 03:05:37;;;;;;;2.78;1.27;;;16.00;50.50;;;;;;6143593;23;20161;-80
2024/01/09 03:08:03;;;;;;;1.67;1.35;;;16.00;50.90;;;;;;6094673;23;20181;-80
2024/01/09 03:10:33;;;;;;;3.28;1.50;;;16.00;50.20;;;;;;6169946;23;20246;-80
2024/01/09 03:13:03;;;;;;;2.33;1.48;;;15.90;50.40;;;;;;6118133;23;20150;-80
2024/01/09 03:15:34;;;;;;;2.05;1.30;;;16.00;50.50;;;;;;6119473;23;20154;-80
2024/01/09 03:18:03;;;;;;;3.35;1.33;;;15.90;50.30;;;;;;6094562;23;20154;-79
2024/01/09 03:20:33;;;;;;;2.75;1.40;;;16.00;50.40;;;;;;6142868;23;20154;-80
2024/01/09 03:25:26;;;;;;;2.20;1.50;;;15.90;50.40;;;;;;6188466;23;20269;-79
2024/01/09 03:27:55;;;;;;;1.73;1.30;;;16.00;50.40;;;;;;6168811;23;20174;-80
2024/01/09 03:30:29;;;;;;;1.27;1.10;;;15.90;50.50;;;;;;6193478;23;20142;-80
2024/01/09 03:32:55;;;;;;;2.70;1.25;;;15.90;50.40;;;;;;6120006;23;20331;-79
2024/01/09 03:35:24;;;;;;;2.95;1.30;;;15.90;50.20;;;;;;6193207;23;20151;-79
2024/01/09 03:37:55;;;;;;;3.25;1.58;;;16.00;50.20;;;;;;6143803;23;20150;-79
2024/01/09 03:40:25;;;;;;;2.97;1.60;;;15.90;50.40;;;;;;6141884;23;20179;-80
2024/01/09 03:42:51;;;;;;;2.47;1.20;;;15.90;50.40;;;;;;6142675;23;20240;-80
2024/01/09 03:45:16;;;;;;;3.20;1.40;;;15.90;50.30;;;;;;6193331;23;20133;-80
2024/01/09 03:47:42;;;;;;;2.90;1.50;;;16.00;50.30;;;;;;6192962;23;20613;-79
2024/01/09 03:50:08;;;;;;;2.20;1.60;;;15.90;50.50;;;;;;6143778;23;20237;-79
2024/01/09 03:52:34;;;;;;;4.55;1.65;;;15.80;50.50;;;;;;6192082;23;20673;-79
2024/01/09 03:55:00;;;;;;;3.53;1.60;;;15.90;50.50;;;;;;6168076;23;20134;-79
2024/01/09 03:57:29;;;;;;;2.83;1.42;;;15.90;50.50;;;;;;6168775;23;20166;-79
2024/01/09 03:59:54;;;;;;;5.72;1.45;;;15.90;50.30;;;;;;6219891;23;20184;-80
2024/01/09 04:02:21;;;;;;;3.03;1.42;;;15.90;50.40;;;;;;6168789;23;20455;-79
2024/01/09 04:04:47;;;;;;;4.93;1.70;;;15.90;50.20;;;;;;6193635;23;20265;-80
2024/01/09 04:07:15;;;;;;;3.92;1.45;;;15.90;50.40;;;;;;6192557;23;20166;-80
2024/01/09 04:09:42;;;;;;;2.95;1.35;;;15.90;50.40;;;;;;6193544;23;20134;-80
2024/01/09 04:12:07;;;;;;;3.53;1.35;;;15.90;50.30;;;;;;6193368;23;20126;-80
2024/01/09 04:14:36;;;;;;;1.42;1.20;;;15.90;50.50;;;;;;6193018;23;20137;-80
2024/01/09 04:17:02;;;;;;;1.65;1.27;;;15.90;50.40;;;;;;6143284;23;20150;-80
2024/01/09 04:19:27;;;;;;;3.60;1.60;;;15.90;50.40;;;;;;6192555;23;20233;-79
2024/01/09 04:21:58;;;;;;;2.63;1.42;;;15.90;50.20;;;;;;6192659;23;20138;-79
2024/01/09 04:24:24;;;;;;;2.65;1.48;;;15.90;50.30;;;;;;6113492;23;20201;-79
2024/01/09 04:26:52;;;;;;;2.75;1.27;;;15.90;50.40;;;;;;6188937;23;20194;-79
2024/01/09 04:29:21;;;;;;;2.67;1.30;;;15.90;50.40;;;;;;6113277;23;20147;-80
2024/01/09 04:31:47;;;;;;;1.63;1.23;;;15.90;50.40;;;;;;6136721;23;20204;-80
2024/01/09 04:34:12;;;;;;;3.58;1.40;;;15.90;50.40;;;;;;6137370;23;20162;-80
2024/01/09 04:36:38;;;;;;;1.75;1.30;;;15.90;50.30;;;;;;6137923;23;20150;-80
2024/01/09 04:39:04;;;;;;;3.15;1.60;;;15.90;50.50;;;;;;6137694;23;20146;-80
2024/01/09 04:41:35;;;;;;;2.35;1.10;;;15.90;50.50;;;;;;6137160;23;20138;-80
2024/01/09 04:44:02;;;;;;;2.97;1.20;;;15.90;50.40;;;;;;6112525;23;20155;-80
2024/01/09 04:46:32;;;;;;;2.30;1.40;;;15.90;50.40;;;;;;6136813;23;20182;-80
2024/01/09 04:49:04;;;;;;;2.55;1.40;;;15.90;50.50;;;;;;6111237;23;20154;-79
2024/01/09 04:51:33;;;;;;;1.85;1.25;;;15.90;50.50;;;;;;6113478;23;20177;-80
2024/01/09 04:54:02;;;;;;;2.25;1.20;;;15.80;50.40;;;;;;6062985;23;20602;-80
2024/01/09 04:56:32;;;;;;;2.53;1.45;;;15.80;50.50;;;;;;6110350;23;20185;-80
2024/01/09 04:59:00;;;;;;;2.90;1.38;;;15.90;50.50;;;;;;6111835;23;20201;-80
2024/01/09 05:01:26;;;;;;;2.33;1.50;;;15.80;50.50;;;;;;6111130;23;20234;-81
2024/01/09 05:03:53;;;;;;;2.05;1.40;;;15.80;50.50;;;;;;6160923;23;20138;-80
2024/01/09 05:06:20;;;;;;;3.15;1.45;;;15.80;50.40;;;;;;6135657;23;20576;-80
2024/01/09 05:08:48;;;;;;;3.42;1.27;;;15.80;50.30;;;;;;6160042;23;20139;-81
2024/01/09 05:11:14;;;;;;;3.30;1.42;;;15.90;50.50;;;;;;6135650;23;20199;-80
2024/01/09 05:13:42;;;;;;;5.05;1.50;;;15.80;50.50;;;;;;6162866;23;20138;-80
2024/01/09 05:16:09;;;;;;;2.70;1.23;;;15.80;50.50;;;;;;6090365;23;20242;-80
2024/01/09 05:18:34;;;;;;;1.90;1.20;;;15.80;50.40;;;;;;6140640;23;20131;-80
2024/01/09 05:21:01;;;;;;;2.83;1.30;;;15.90;50.20;;;;;;6165027;23;20142;-80
2024/01/09 05:25:52;;;;;;;3.63;1.40;;;15.90;50.30;;;;;;6209214;23;20668;-81
2024/01/09 05:28:23;;;;;;;3.25;1.55;;;15.90;50.40;;;;;;6169255;23;20594;-79
2024/01/09 05:30:53;;;;;;;1.45;1.15;;;15.90;50.40;;;;;;6144775;23;20157;-79
2024/01/09 05:33:21;;;;;;;3.15;1.50;;;15.90;50.30;;;;;;6145109;23;20176;-80
2024/01/09 05:35:51;;;;;;;2.05;1.38;;;15.80;50.40;;;;;;6120643;23;20154;-79
2024/01/09 05:38:17;;;;;;;3.47;1.40;;;15.70;50.50;;;;;;6195143;23;20145;-79
2024/01/09 05:40:46;;;;;;;2.92;1.58;;;15.80;50.30;;;;;;6169970;23;20209;-80
2024/01/09 05:43:12;;;;;;;3.60;1.40;;;15.80;50.50;;;;;;6144376;23;20177;-80
2024/01/09 05:45:38;;;;;;;1.40;1.20;;;15.80;50.50;;;;;;6170956;23;20134;-79
2024/01/09 05:48:04;;;;;;;4.20;1.50;;;15.80;50.30;;;;;;6170659;23;20177;-80
2024/01/09 05:50:30;;;;;;;2.42;1.40;;;15.90;50.40;;;;;;6171718;23;20130;-80
2024/01/09 05:53:02;;;;;;;3.05;1.50;;;15.80;50.30;;;;;;6171237;23;20217;-80
2024/01/09 05:55:29;;;;;;;3.10;1.40;;;15.80;50.50;;;;;;6121000;23;20174;-80
2024/01/09 05:57:56;;;;;;;2.13;1.23;;;15.80;50.40;;;;;;6144071;23;20185;-80
2024/01/09 06:00:26;;;;;;;3.35;1.60;;;15.80;50.40;;;;;;6143735;23;20236;-80
2024/01/09 06:03:02;;;;;;;2.22;1.40;;;15.90;50.50;;;;;;6119724;23;20164;-80
2024/01/09 06:05:28;;;;;;;1.63;1.25;;;15.80;50.50;;;;;;6195145;23;20130;-80
2024/01/09 06:07:55;;;;;;;1.70;1.20;;;15.80;50.50;;;;;;6170602;23;20213;-82
2024/01/09 06:10:21;;;;;;;3.40;1.35;;;15.80;50.40;;;;;;6170911;23;20162;-81
2024/01/09 06:12:46;;;;;;;1.83;1.35;;;15.90;50.40;;;;;;6221282;23;20133;-80
2024/01/09 06:15:12;;;;;;;2.05;1.38;;;15.80;50.40;;;;;;6194584;23;20135;-80
2024/01/09 06:17:38;;;;;;;1.88;1.20;;;15.80;50.30;;;;;;6171639;23;20145;-81
2024/01/09 06:20:04;;;;;;;1.35;1.13;;;15.80;50.50;;;;;;6170143;23;20142;-80
2024/01/09 06:22:30;;;;;;;1.73;1.50;;;15.80;50.30;;;;;;6195639;23;20184;-79
2024/01/09 06:24:56;;;;;;;2.35;1.23;;;15.80;50.50;;;;;;6170868;23;20252;-80
2024/01/09 06:27:22;;;;;;;2.78;1.23;;;15.80;50.60;;;;;;6221898;23;20170;-80
2024/01/09 06:29:50;;;;;;;1.90;1.40;;;15.80;50.60;;;;;;6147147;23;20138;-81
2024/01/09 06:32:16;;;;;;;2.33;1.33;;;15.70;50.50;;;;;;6171171;23;20130;-81
2024/01/09 06:34:46;;;;;;;1.75;1.20;;;15.80;50.70;;;;;;6146279;23;20145;-81
2024/01/09 06:37:12;;;;;;;2.53;1.35;;;15.70;50.60;;;;;;6144655;23;20169;-80
2024/01/09 06:39:37;;;;;;;1.45;1.13;;;15.80;50.40;;;;;;6195128;23;20217;-81
2024/01/09 06:42:04;;;;;;;2.47;1.30;;;15.90;50.60;;;;;;6169046;23;20141;-80
2024/01/09 06:44:31;;;;;;;2.50;1.23;;;15.80;50.50;;;;;;6169764;23;20131;-81
2024/01/09 06:46:56;;;;;;;2.30;1.27;;;15.80;50.30;;;;;;6196999;23;20200;-80
2024/01/09 06:50:08;;;;;;;2.08;1.33;;;15.80;50.50;;;;;;6197563;23;20143;-80
2024/01/09 06:52:45;;;;;;;1.70;1.20;;;15.80;50.40;;;;;;6174885;23;20159;-82
2024/01/09 06:55:39;;;;;;;2.10;1.40;;;15.70;50.30;;;;;;6115598;23;20188;-82
2024/01/09 06:58:24;;;;;;;2.25;1.30;;;15.90;50.40;;;;;;6035663;23;20167;-82
2024/01/09 07:01:08;;;;;;;2.15;1.40;;;15.80;50.40;;;;;;5974194;24;20152;-81
2024/01/09 07:04:02;;;;;;;1.33;1.00;;;15.80;50.50;;;;;;5923739;24;20157;-82
2024/01/09 07:06:50;;;;;;;1.40;1.10;;;15.80;50.40;;;;;;5917147;24;20181;-82
2024/01/09 07:09:45;;;;;;;2.40;1.30;;;15.80;50.30;;;;;;5895829;24;20184;-82
2024/01/09 07:12:34;;;;;;;2.70;1.10;;;15.80;50.30;;;;;;5916312;24;20157;-82
2024/01/09 07:15:06;;;;;;;3.95;1.40;;;15.80;50.10;;;;;;5870517;24;20162;-82
2024/01/09 07:21:11;;;;;;;1.60;1.15;;;15.90;49.70;;;;;;5892929;24;20165;-81
2024/01/09 07:23:46;;;;;;;3.42;1.20;;;16.00;49.80;;;;;;5849954;24;20210;-81
2024/01/09 07:33:07;;;;;;;3.15;1.30;;;16.10;49.60;;;;;;5919971;24;20160;-82
2024/01/09 07:36:23;;;;;;;1.40;1.08;;;16.00;49.80;;;;;;5921273;24;20146;-82
2024/01/09 07:42:17;;;;;;;1.50;1.17;;;16.00;49.60;;;;;;5977071;23;20143;-82
2024/01/09 07:44:52;;;;;;;3.28;1.40;;;16.10;49.60;;;;;;6051909;23;20610;-81
2024/01/09 07:47:23;;;;;;;2.67;1.45;;;16.10;49.40;;;;;;6085226;23;20229;-82
2024/01/09 07:50:05;;;;;;;1.55;1.40;;;16.10;49.00;;;;;;6060574;23;20153;-82
2024/01/09 07:52:48;;;;;;;1.17;1.08;;;16.10;49.20;;;;;;6041874;23;20216;-81
2024/01/09 07:55:24;;;;;;;2.90;1.40;;;16.10;49.30;;;;;;6056630;23;20221;-82
2024/01/09 07:58:06;;;;;;;;;;;;;;;;;;;;;
2024/01/09 08:01:15;;;;;;;1.50;1.10;;;16.20;49.10;;;;;;6027665;23;20546;-82
2024/01/09 08:03:58;;;;;;;1.30;1.00;;;16.10;49.20;;;;;;6055267;23;20209;-83
2024/01/09 08:06:28;;;;;;;1.73;1.23;;;16.20;49.10;;;;;;6057257;23;20172;-82
2024/01/09 08:12:16;;;;;;;1.73;1.10;;;16.20;49.50;;;;;;6030274;23;20158;-81
2024/01/09 08:14:51;;;;;;;2.35;1.23;;;16.10;49.10;;;;;;6026231;23;20170;-81
2024/01/09 08:24:57;;;;;;;2.38;1.10;;;16.20;49.40;;;;;;5900428;24;20201;-81
2024/01/09 08:27:30;;;;;;;2.65;1.10;;;16.30;48.60;;;;;;5854812;24;20223;-80
2024/01/09 08:29:58;;;;;;;2.22;0.80;;;16.20;49.40;;;;;;5877812;24;20199;-80
2024/01/09 08:32:23;;;;;;;1.50;1.00;;;16.40;48.40;;;;;;5880608;24;20158;-80
2024/01/09 08:34:49;;;;;;;1.08;0.85;;;16.40;48.90;;;;;;5879577;24;20251;-80
2024/01/09 08:37:16;;;;;;;1.95;1.20;;;16.30;49.00;;;;;;5858309;24;20162;-80
2024/01/09 08:39:42;;;;;;;1.42;1.00;;;16.40;48.60;;;;;;5880722;24;20181;-80
2024/01/09 08:42:08;;;;;;;1.00;0.90;;;16.50;48.90;;;;;;5890621;24;20279;-81
2024/01/09 08:44:38;;;;;;;1.30;0.90;;;16.50;48.90;;;;;;5890565;24;20232;-80
2024/01/09 08:47:04;;;;;;;1.38;1.00;;;16.50;49.00;;;;;;5867899;24;20789;-81
2024/01/09 08:49:34;;;;;;;2.53;1.00;;;16.50;49.00;;;;;;5935435;24;20180;-80
2024/01/09 08:52:01;;;;;;;1.35;1.10;;;16.50;48.80;;;;;;5867512;24;20157;-81
2024/01/09 08:54:32;;;;;;;1.83;1.10;;;16.60;48.80;;;;;;5986201;23;20229;-80
2024/01/09 08:57:01;;;;;;;2.17;1.02;;;16.50;49.00;;;;;;6118810;23;20214;-80
2024/01/09 08:59:38;;;;;;;1.50;0.98;;;16.50;49.10;;;;;;6093979;23;20653;-81
2024/01/09 09:02:10;;;;;;;1.17;1.00;;;16.50;49.20;;;;;;6096241;23;20170;-80
2024/01/09 09:04:39;;;;;;;1.38;1.00;;;16.50;49.10;;;;;;6118748;23;20154;-80
2024/01/09 09:07:14;;;;;;;1.40;0.95;;;16.60;49.00;;;;;;6095181;23;20178;-81
2024/01/09 09:10:03;;;;;;;1.77;1.10;;;16.50;49.00;;;;;;6102734;23;20150;-79
2024/01/09 09:12:33;;;;;;;1.40;1.00;;;16.60;48.60;;;;;;6064946;23;20159;-81
2024/01/09 09:15:03;;;;;;;2.38;1.00;;;16.80;48.30;;;;;;6086467;23;20163;-81
2024/01/09 09:17:32;;;;;;;2.53;0.90;;;16.80;48.30;;;;;;6062665;23;20292;-81
2024/01/09 09:20:05;;;;;;;2.70;1.27;;;16.80;48.40;;;;;;6109872;23;20179;-81
2024/01/09 09:22:36;;;;;;;1.17;0.95;;;16.70;48.60;;;;;;6087918;23;20552;-81
2024/01/09 09:25:02;;;;;;;1.73;1.00;;;16.70;48.50;;;;;;6102003;23;20250;-80
2024/01/09 09:27:32;;;;;;;1.83;1.10;;;16.70;48.60;;;;;;6143180;23;20305;-79
2024/01/09 09:30:04;;;;;;;1.42;0.93;;;16.80;49.10;;;;;;6068885;23;20154;-82
2024/01/09 09:32:34;;;;;;;3.50;1.00;;;16.70;48.40;;;;;;6068180;23;20159;-81
2024/01/09 09:35:02;;;;;;;0.90;0.90;;;16.70;48.60;;;;;;6091793;23;20151;-79
2024/01/09 09:37:30;;;;;;;1.95;0.90;;;16.70;48.60;;;;;;6093015;23;20156;-79
2024/01/09 09:39:58;;;;;;;1.00;0.70;;;16.80;48.30;;;;;;6094516;23;20237;-79
2024/01/09 09:42:26;;;;;;;1.85;0.98;;;16.90;48.10;;;;;;6121032;23;20210;-80
2024/01/09 09:44:57;;;;;;;1.10;1.00;;;16.80;48.40;;;;;;6128080;23;20154;-79
2024/01/09 09:47:24;;;;;;;2.88;1.17;;;16.80;48.70;;;;;;6152265;23;20204;-78
2024/01/09 09:49:52;;;;;;;2.55;1.08;;;16.80;48.60;;;;;;6153586;23;20186;-80
2024/01/09 09:52:24;;;;;;;1.27;1.00;;;16.80;48.90;;;;;;6151833;23;20265;-79
2024/01/09 09:54:52;;;;;;;1.10;0.82;;;16.80;48.80;;;;;;6126949;23;20219;-80
2024/01/09 09:57:22;;;;;;;1.98;1.20;;;16.70;49.10;;;;;;6152680;23;20214;-79
2024/01/09 09:59:49;;;;;;;1.98;1.13;;;16.70;49.10;;;;;;6152875;23;20154;-78
2024/01/09 10:02:35;;;;;;;6.18;1.00;;;16.70;48.90;;;;;;6100976;23;20462;-81
2024/01/09 10:05:07;;;;;;;4.32;1.10;;;16.80;48.70;;;;;;6130014;23;20216;-79
2024/01/09 10:07:37;;;;;;;3.70;1.17;;;16.90;48.80;;;;;;6167464;23;20196;-80
2024/01/09 10:10:05;;;;;;;1.92;1.15;;;16.80;48.40;;;;;;6116980;23;20177;-83
2024/01/09 10:12:49;;;;;;;2.47;1.08;;;16.90;48.30;;;;;;6105776;23;20173;-83
2024/01/09 10:15:17;;;;;;;4.75;1.25;;;17.00;48.10;;;;;;6133405;23;20158;-82
2024/01/09 10:17:47;;;;;;;4.85;1.02;;;16.90;49.20;;;;;;6120504;23;20165;-81
2024/01/09 10:20:15;;;;;;;3.13;1.10;;;16.80;48.50;;;;;;6146525;23;20536;-80
2024/01/09 10:22:52;;;;;;;2.25;1.10;;;16.80;48.70;;;;;;6152570;23;20221;-81
2024/01/09 10:26:10;;;;;;;;;;;;;;;;;;;;;
2024/01/09 10:28:45;;;;;;;2.03;1.50;;;17.00;49.10;;;;;;6103643;23;20211;-82
2024/01/09 10:31:36;;;;;;;2.28;1.08;;;16.90;48.60;;;;;;6062231;23;20175;-81
2024/01/09 10:34:10;;;;;;;1.80;1.00;;;16.90;48.60;;;;;;6086304;23;20167;-81
2024/01/09 10:37:07;;;;;;;2.47;1.00;;;17.00;48.30;;;;;;6031532;23;20611;-81
2024/01/09 10:40:17;;;;;;;4.53;1.00;;;17.00;48.20;;;;;;6130063;23;20180;-81
2024/01/09 10:42:49;;;;;;;2.80;0.98;;;17.00;48.80;;;;;;6129315;23;20155;-82
2024/01/09 10:45:20;;;;;;;1.77;0.90;;;17.00;48.50;;;;;;6076551;23;20588;-81
2024/01/09 10:47:53;;;;;;;1.17;0.80;;;17.10;47.90;;;;;;6050618;23;20176;-81
2024/01/09 10:50:21;;;;;;;3.03;0.90;;;17.00;48.10;;;;;;6005771;23;20153;-82
2024/01/09 10:52:51;;;;;;;2.50;1.00;;;17.10;48.20;;;;;;6079957;23;20156;-80
2024/01/09 10:55:22;;;;;;;2.92;0.90;;;17.10;48.10;;;;;;6055944;23;20145;-80
2024/01/09 10:57:48;;;;;;;1.67;0.82;;;17.10;48.00;;;;;;6036002;23;20253;-80
2024/01/09 11:00:22;;;;;;;2.75;0.90;;;17.10;47.50;;;;;;6056882;23;20165;-83
2024/01/09 11:03:06;;;;;;;2.35;0.98;;;17.20;47.60;;;;;;6058829;23;20176;-82
2024/01/09 11:05:41;;;;;;;2.75;0.70;;;17.10;47.80;;;;;;6042016;23;20159;-80
2024/01/09 11:08:10;;;;;;;2.20;0.98;;;17.10;47.80;;;;;;6137717;23;20171;-82
2024/01/09 11:10:42;;;;;;;1.88;0.93;;;17.00;47.90;;;;;;6139350;23;20159;-81
2024/01/09 11:13:49;;;;;;;1.40;0.98;;;17.10;48.10;;;;;;6162129;23;20163;-80
2024/01/09 11:16:44;;;;;;;3.70;1.00;;;17.00;48.10;;;;;;6079866;23;20156;-80
2024/01/09 11:19:32;;;;;;;4.90;1.10;;;17.00;48.20;;;;;;6062421;23;20497;-80
2024/01/09 11:22:16;;;;;;;2.85;0.80;;;17.00;48.50;;;;;;6042198;23;20180;-82
2024/01/09 11:24:48;;;;;;;3.20;1.08;;;17.00;48.30;;;;;;6080143;23;20193;-82
2024/01/09 11:27:17;;;;;;;1.52;0.70;;;17.10;48.10;;;;;;6033837;23;20577;-82
2024/01/09 11:29:50;;;;;;;0.85;0.73;;;17.10;48.10;;;;;;6080081;23;20211;-83
2024/01/09 11:32:24;;;;;;;4.13;0.90;;;17.10;48.20;;;;;;6005351;23;20188;-82
2024/01/09 11:35:11;;;;;;;1.30;0.88;;;17.20;47.80;;;;;;5975722;23;20188;-83
2024/01/09 11:37:40;;;;;;;4.90;1.05;;;17.10;48.20;;;;;;6044279;23;20162;-83
2024/01/09 11:40:10;;;;;;;1.83;0.80;;;17.20;48.10;;;;;;6070298;23;20254;-84
2024/01/09 11:42:37;;;;;;;1.90;0.98;;;17.00;48.20;;;;;;6071247;23;20161;-83
2024/01/09 11:45:07;;;;;;;1.13;0.80;;;17.20;48.20;;;;;;6047438;23;20157;-82
2024/01/09 11:47:38;;;;;;;1.02;0.90;;;17.10;48.10;;;;;;6046936;23;20264;-83
2024/01/09 11:50:09;;;;;;;1.27;0.90;;;17.20;48.10;;;;;;6045866;23;20134;-84
2024/01/09 11:52:36;;;;;;;0.90;0.88;;;17.20;48.10;;;;;;6077490;23;20497;-82
2024/01/09 11:55:04;;;;;;;3.08;0.85;;;17.10;48.20;;;;;;6216693;23;20152;-84
2024/01/09 11:57:30;;;;;;;1.27;0.93;;;17.10;47.80;;;;;;6165345;23;20235;-81
2024/01/09 11:59:56;;;;;;;1.92;0.90;;;17.10;48.20;;;;;;6188515;23;20135;-82
2024/01/09 12:02:37;;;;;;;5.22;1.00;;;17.00;48.30;;;;;;6163563;23;20232;-81
2024/01/09 12:05:06;;;;;;;0.80;0.70;;;17.00;48.20;;;;;;6113977;23;20154;-81
2024/01/09 12:07:33;;;;;;;2.45;0.80;;;17.10;48.30;;;;;;6163170;23;20188;-81
2024/01/09 12:10:03;;;;;;;2.67;0.90;;;17.00;48.00;;;;;;6188685;23;20130;-81
2024/01/09 12:12:31;;;;;;;1.60;0.90;;;16.90;48.30;;;;;;6163861;23;20161;-82
2024/01/09 12:14:59;;;;;;;0.73;0.70;;;16.90;48.50;;;;;;6127054;23;20275;-82
2024/01/09 12:20:10;;;;;;;1.58;0.90;;;16.90;48.30;;;;;;6132246;23;20259;-82
2024/01/09 12:22:36;;;;;;;1.65;1.02;;;17.00;48.40;;;;;;6129399;23;20561;-80
2024/01/09 12:25:02;;;;;;;0.90;0.73;;;16.90;48.10;;;;;;6154334;23;20194;-81
2024/01/09 12:27:31;;;;;;;1.17;0.90;;;17.10;48.10;;;;;;6129616;23;20183;-82
2024/01/09 12:29:58;;;;;;;2.67;0.90;;;17.00;48.00;;;;;;6106856;23;20155;-81
2024/01/09 12:32:28;;;;;;;1.70;1.00;;;17.00;48.30;;;;;;6107215;23;20171;-81
2024/01/09 12:35:00;;;;;;;1.42;0.82;;;17.00;48.30;;;;;;6082404;23;20251;-84
2024/01/09 12:40:09;;;;;;;1.13;0.80;;;17.00;48.50;;;;;;6187000;23;20211;-81
2024/01/09 12:42:42;;;;;;;0.73;0.70;;;16.90;48.50;;;;;;6169546;23;20221;-82
2024/01/09 12:45:10;;;;;;;0.70;0.70;;;17.00;48.60;;;;;;6167187;23;20150;-82
2024/01/09 12:47:37;;;;;;;1.05;0.90;;;16.80;48.80;;;;;;6167770;23;20177;-81
2024/01/09 12:50:04;;;;;;;2.20;0.93;;;16.80;48.90;;;;;;6166597;23;20138;-81
2024/01/09 12:52:31;;;;;;;2.08;0.80;;;16.80;48.80;;;;;;6192340;23;20553;-81
2024/01/09 12:54:57;;;;;;;1.45;0.85;;;16.90;48.80;;;;;;6193785;23;20144;-82
2024/01/09 12:57:22;;;;;;;1.08;0.80;;;16.90;48.80;;;;;;6194387;23;20138;-82
2024/01/09 12:59:49;;;;;;;0.75;0.70;;;16.80;48.90;;;;;;6195177;23;20771;-82
2024/01/09 13:02:19;;;;;;;2.05;0.82;;;16.80;49.10;;;;;;6135865;23;20306;-81
2024/01/09 13:04:48;;;;;;;3.83;0.70;;;16.80;48.90;;;;;;6137181;23;20151;-82
2024/01/09 13:07:18;;;;;;;3.17;0.80;;;16.90;48.80;;;;;;6164390;23;20192;-81
2024/01/09 13:09:51;;;;;;;1.52;0.85;;;16.80;48.60;;;;;;6166547;23;20169;-82
2024/01/09 13:12:27;;;;;;;1.10;0.70;;;16.90;48.70;;;;;;6118849;23;20158;-82
2024/01/09 13:14:55;;;;;;;1.95;0.80;;;16.80;48.60;;;;;;6167834;23;20141;-82
2024/01/09 13:17:29;;;;;;;1.23;0.88;;;16.90;48.50;;;;;;6142190;23;20167;-82
2024/01/09 13:19:59;;;;;;;1.75;0.85;;;16.90;48.70;;;;;;6143555;23;20167;-82
2024/01/09 13:22:25;;;;;;;1.83;0.88;;;16.90;48.50;;;;;;6119247;23;20563;-82
2024/01/09 13:24:51;;;;;;;2.42;0.75;;;16.90;48.60;;;;;;6166277;23;20138;-81
2024/01/09 13:27:24;;;;;;;2.83;0.90;;;16.90;48.60;;;;;;6142539;23;20560;-82
2024/01/09 13:29:54;;;;;;;2.08;0.80;;;16.80;48.50;;;;;;6142149;23;20151;-80
2024/01/09 13:32:20;;;;;;;1.35;1.00;;;16.90;48.70;;;;;;6160630;23;20592;-81
2024/01/09 13:34:45;;;;;;;0.70;0.60;;;16.90;48.60;;;;;;6136187;23;20177;-81
2024/01/09 13:37:12;;;;;;;3.20;0.90;;;16.90;48.50;;;;;;6187173;23;20178;-81
2024/01/09 13:39:39;;;;;;;2.55;0.90;;;16.90;48.30;;;;;;6161696;23;20206;-82
2024/01/09 13:42:05;;;;;;;3.92;1.00;;;17.00;48.50;;;;;;6140320;23;20197;-83